CCGS Cape Naden — CFN5482 — position and weather

sailwx.info

Track history (hours):
 
Tides and Currents Weather Stations Pressure Air Temp Water Temp Dewpoint Dewpoint Depression Visibility Wind Speed Wind Dir Waves Ship Positions

CCGS Cape Naden

Last reported at 2015-Mar-29 00:24 UTC. Time now 2015-Mar-29 16:12 UTC.
Position N 48°51' W 123°30'.

Length 15 m; draft 0.8 m.

Type: SAR. MMSI: 316017162.

Date/timePositionNaut miles runAvg speedWind from/ knotsBaromVisibWave heightAir tempDewpointWater temp
2015-Mar-29 00:24N 48°51' W 123°30'0 0.0
2015-Mar-28 23:31N 48°51' W 123°30'0 0.0
2015-Mar-28 22:32N 48°51' W 123°30'0 0.0
2015-Mar-28 21:33N 48°51' W 123°30'0 0.0
2015-Mar-28 20:33N 48°51' W 123°30'0 0.0
2015-Mar-28 19:33N 48°51' W 123°30'0 0.0
2015-Mar-28 18:31N 48°51' W 123°30'0 0.0
2015-Mar-28 17:33N 48°51' W 123°30'0 0.0
2015-Mar-28 16:32N 48°51' W 123°30'0 0.0
2015-Mar-28 15:31N 48°51' W 123°30'0 0.0
2015-Mar-28 14:32N 48°51' W 123°30'0 0.0
2015-Mar-28 13:32N 48°51' W 123°30'0 0.0
2015-Mar-28 12:33N 48°51' W 123°30'0 0.0
2015-Mar-28 11:31N 48°51' W 123°30'0 0.0
2015-Mar-28 10:32N 48°51' W 123°30'0 0.0
2015-Mar-28 09:24N 48°51' W 123°30'0 0.0
2015-Mar-28 08:32N 48°51' W 123°30'0 0.0
2015-Mar-28 07:26N 48°51' W 123°30'0 0.0
2015-Mar-28 06:32N 48°51' W 123°30'0 0.0
2015-Mar-28 05:32N 48°51' W 123°30'0 0.0
2015-Mar-28 04:33N 48°51' W 123°30'0 0.0
2015-Mar-28 03:16N 48°51' W 123°30'0 0.0
2015-Mar-28 02:19N 48°51' W 123°30'0 0.0
2015-Mar-28 01:32N 48°51' W 123°30'0 0.0
2015-Mar-28 00:23N 48°51' W 123°30'0 0.0
2015-Mar-27 23:28N 48°51' W 123°30'0 0.0
2015-Mar-27 22:33N 48°51' W 123°30'0 0.0
2015-Mar-27 21:30N 48°51' W 123°30'0 0.0
2015-Mar-27 20:33N 48°51' W 123°30'0 0.0
2015-Mar-27 19:33N 48°51' W 123°30'0 0.0
2015-Mar-27 18:30N 48°51' W 123°30'0 0.0
2015-Mar-27 17:29N 48°51' W 123°30'0 0.0
2015-Mar-27 16:33N 48°51' W 123°30'0 0.0
2015-Mar-27 15:25N 48°51' W 123°30'0 0.0
2015-Mar-27 14:30N 48°51' W 123°30'0 0.0
2015-Mar-27 13:33N 48°51' W 123°30'0 0.0
2015-Mar-27 12:33N 48°51' W 123°30'0 0.0
2015-Mar-27 11:33N 48°51' W 123°30'0 0.0
2015-Mar-27 10:33N 48°51' W 123°30'0 0.0
2015-Mar-27 09:33N 48°51' W 123°30'0 0.0
2015-Mar-27 08:33N 48°51' W 123°30'0 0.0
2015-Mar-27 07:33N 48°51' W 123°30'0 0.0
2015-Mar-27 06:33N 48°51' W 123°30'0 0.0
2015-Mar-27 05:30N 48°51' W 123°30'0 0.0
2015-Mar-27 04:32N 48°51' W 123°30'0 0.0
2015-Mar-27 03:33N 48°51' W 123°30'0 0.0
2015-Mar-26 23:25N 48°51' W 123°30'0 0.0
2015-Mar-26 21:21N 48°51' W 123°30'8 9.4
2015-Mar-26 20:30N 48°56' W 123°39'2 1.5
2015-Mar-26 19:13N 48°58' W 123°40'6 4.9
2015-Mar-26 18:05N 49°03' W 123°43'1115.7
2015-Mar-26 17:23N 48°56' W 123°31'5 1.6
2015-Mar-26 14:31N 48°51' W 123°30'0 0.0
2015-Mar-26 09:21N 48°51' W 123°30'0 0.0
2015-Mar-25 15:17N 48°51' W 123°30'0 0.0
2015-Mar-25 14:32N 48°51' W 123°30'7 7.7
2015-Mar-25 13:33N 48°56' W 123°21'7 7.3
2015-Mar-25 12:34N 49°03' W 123°24'12 1.9
2015-Mar-25 06:09N 48°51' W 123°30'0 0.0
2015-Mar-25 05:29N 48°51' W 123°30'0 0.0
2015-Mar-25 04:21N 48°51' W 123°30'0 0.0
2015-Mar-25 02:28N 48°51' W 123°30'0 0.0
2015-Mar-25 01:33N 48°51' W 123°30'0 0.0
2015-Mar-24 23:26N 48°51' W 123°30'0 0.0
2015-Mar-24 22:18N 48°51' W 123°30'0 0.0
2015-Mar-24 20:30N 48°51' W 123°30'0 0.0
2015-Mar-24 15:24N 48°51' W 123°30'0 0.0
2015-Mar-24 14:33N 48°51' W 123°30'0 0.0
2015-Mar-24 13:30N 48°51' W 123°30'0 0.0
2015-Mar-24 12:32N 48°51' W 123°30'0 0.0
2015-Mar-22 23:29N 48°51' W 123°30'0 0.0
2015-Mar-22 22:33N 48°51' W 123°30'0 0.0
2015-Mar-22 20:34N 48°51' W 123°30'0 0.0
2015-Mar-22 05:13N 48°51' W 123°30'0 0.0
2015-Mar-22 04:24N 48°51' W 123°30'0 0.0
2015-Mar-22 03:31N 48°51' W 123°30'0 0.0
2015-Mar-22 02:33N 48°51' W 123°30'0 0.0
2015-Mar-22 01:33N 48°51' W 123°30'0 0.0
2015-Mar-22 00:32N 48°51' W 123°30'0 0.0
2015-Mar-21 23:32N 48°51' W 123°30'0 0.0
2015-Mar-21 22:33N 48°51' W 123°30'0 0.0
2015-Mar-21 21:30N 48°51' W 123°30'7 2.2
2015-Mar-21 18:19N 48°47' W 123°22'810.1
2015-Mar-21 17:31N 48°39' W 123°27'6 5.5
2015-Mar-21 16:31N 48°44' W 123°24'8 0.2
2015-Mar-20 02:31N 48°51' W 123°30'0 0.0
2015-Mar-20 01:23N 48°51' W 123°30'0 0.0
2015-Mar-19 13:33N 48°51' W 123°30'0 0.0
2015-Mar-19 12:33N 48°51' W 123°30'0 0.0
2015-Mar-19 11:33N 48°51' W 123°30'0 0.0
2015-Mar-19 10:33N 48°51' W 123°30'0 0.0
2015-Mar-19 09:33N 48°51' W 123°30'0 0.0
2015-Mar-19 08:33N 48°51' W 123°30'0 0.0
2015-Mar-19 07:33N 48°51' W 123°30'0 0.0
2015-Mar-19 06:33N 48°51' W 123°30'0 0.0
2015-Mar-19 05:33N 48°51' W 123°30'0 0.0
2015-Mar-19 04:33N 48°51' W 123°30'0 0.0
2015-Mar-19 03:32N 48°51' W 123°30'0 0.0
2015-Mar-19 02:33N 48°51' W 123°30'0 0.0
2015-Mar-19 01:33N 48°51' W 123°30'0 0.0
2015-Mar-19 00:33N 48°51' W 123°30'  
Track history (hours):
 
Tides and Currents Weather Stations Pressure Air Temp Water Temp Dewpoint Dewpoint Depression Visibility Wind Speed Wind Dir Waves Ship Positions

CCGS Cape Naden

Last reported at 2015-Mar-29 00:24 UTC. Time now 2015-Mar-29 16:12 UTC.
Position N 48°51' W 123°30'.

Length 15 m; draft 0.8 m.

Type: SAR. MMSI: 316017162.

Date/timePositionNaut miles runAvg speedWind from/ knotsBaromVisibWave heightAir tempDewpointWater temp
2015-Mar-29 00:24N 48°51' W 123°30'0 0.0
2015-Mar-28 23:31N 48°51' W 123°30'0 0.0
2015-Mar-28 22:32N 48°51' W 123°30'0 0.0
2015-Mar-28 21:33N 48°51' W 123°30'0 0.0
2015-Mar-28 20:33N 48°51' W 123°30'0 0.0
2015-Mar-28 19:33N 48°51' W 123°30'0 0.0
2015-Mar-28 18:31N 48°51' W 123°30'0 0.0
2015-Mar-28 17:33N 48°51' W 123°30'0 0.0
2015-Mar-28 16:32N 48°51' W 123°30'0 0.0
2015-Mar-28 15:31N 48°51' W 123°30'0 0.0
2015-Mar-28 14:32N 48°51' W 123°30'0 0.0
2015-Mar-28 13:32N 48°51' W 123°30'0 0.0
2015-Mar-28 12:33N 48°51' W 123°30'0 0.0
2015-Mar-28 11:31N 48°51' W 123°30'0 0.0
2015-Mar-28 10:32N 48°51' W 123°30'0 0.0
2015-Mar-28 09:24N 48°51' W 123°30'0 0.0
2015-Mar-28 08:32N 48°51' W 123°30'0 0.0
2015-Mar-28 07:26N 48°51' W 123°30'0 0.0
2015-Mar-28 06:32N 48°51' W 123°30'0 0.0
2015-Mar-28 05:32N 48°51' W 123°30'0 0.0
2015-Mar-28 04:33N 48°51' W 123°30'0 0.0
2015-Mar-28 03:16N 48°51' W 123°30'0 0.0
2015-Mar-28 02:19N 48°51' W 123°30'0 0.0
2015-Mar-28 01:32N 48°51' W 123°30'0 0.0
2015-Mar-28 00:23N 48°51' W 123°30'0 0.0
2015-Mar-27 23:28N 48°51' W 123°30'0 0.0
2015-Mar-27 22:33N 48°51' W 123°30'0 0.0
2015-Mar-27 21:30N 48°51' W 123°30'0 0.0
2015-Mar-27 20:33N 48°51' W 123°30'0 0.0
2015-Mar-27 19:33N 48°51' W 123°30'0 0.0
2015-Mar-27 18:30N 48°51' W 123°30'0 0.0
2015-Mar-27 17:29N 48°51' W 123°30'0 0.0
2015-Mar-27 16:33N 48°51' W 123°30'0 0.0
2015-Mar-27 15:25N 48°51' W 123°30'0 0.0
2015-Mar-27 14:30N 48°51' W 123°30'0 0.0
2015-Mar-27 13:33N 48°51' W 123°30'0 0.0
2015-Mar-27 12:33N 48°51' W 123°30'0 0.0
2015-Mar-27 11:33N 48°51' W 123°30'0 0.0
2015-Mar-27 10:33N 48°51' W 123°30'0 0.0
2015-Mar-27 09:33N 48°51' W 123°30'0 0.0
2015-Mar-27 08:33N 48°51' W 123°30'0 0.0
2015-Mar-27 07:33N 48°51' W 123°30'0 0.0
2015-Mar-27 06:33N 48°51' W 123°30'0 0.0
2015-Mar-27 05:30N 48°51' W 123°30'0 0.0
2015-Mar-27 04:32N 48°51' W 123°30'0 0.0
2015-Mar-27 03:33N 48°51' W 123°30'0 0.0
2015-Mar-26 23:25N 48°51' W 123°30'0 0.0
2015-Mar-26 21:21N 48°51' W 123°30'8 9.4
2015-Mar-26 20:30N 48°56' W 123°39'2 1.5
2015-Mar-26 19:13N 48°58' W 123°40'6 4.9
2015-Mar-26 18:05N 49°03' W 123°43'1115.7
2015-Mar-26 17:23N 48°56' W 123°31'5 1.6
2015-Mar-26 14:31N 48°51' W 123°30'0 0.0
2015-Mar-26 09:21N 48°51' W 123°30'0 0.0
2015-Mar-25 15:17N 48°51' W 123°30'0 0.0
2015-Mar-25 14:32N 48°51' W 123°30'7 7.7
2015-Mar-25 13:33N 48°56' W 123°21'7 7.3
2015-Mar-25 12:34N 49°03' W 123°24'12 1.9
2015-Mar-25 06:09N 48°51' W 123°30'0 0.0
2015-Mar-25 05:29N 48°51' W 123°30'0 0.0
2015-Mar-25 04:21N 48°51' W 123°30'0 0.0
2015-Mar-25 02:28N 48°51' W 123°30'0 0.0
2015-Mar-25 01:33N 48°51' W 123°30'0 0.0
2015-Mar-24 23:26N 48°51' W 123°30'0 0.0
2015-Mar-24 22:18N 48°51' W 123°30'0 0.0
2015-Mar-24 20:30N 48°51' W 123°30'0 0.0
2015-Mar-24 15:24N 48°51' W 123°30'0 0.0
2015-Mar-24 14:33N 48°51' W 123°30'0 0.0
2015-Mar-24 13:30N 48°51' W 123°30'0 0.0
2015-Mar-24 12:32N 48°51' W 123°30'0 0.0
2015-Mar-22 23:29N 48°51' W 123°30'0 0.0
2015-Mar-22 22:33N 48°51' W 123°30'0 0.0
2015-Mar-22 20:34N 48°51' W 123°30'0 0.0
2015-Mar-22 05:13N 48°51' W 123°30'0 0.0
2015-Mar-22 04:24N 48°51' W 123°30'0 0.0
2015-Mar-22 03:31N 48°51' W 123°30'0 0.0
2015-Mar-22 02:33N 48°51' W 123°30'0 0.0
2015-Mar-22 01:33N 48°51' W 123°30'0 0.0
2015-Mar-22 00:32N 48°51' W 123°30'0 0.0
2015-Mar-21 23:32N 48°51' W 123°30'0 0.0
2015-Mar-21 22:33N 48°51' W 123°30'0 0.0
2015-Mar-21 21:30N 48°51' W 123°30'7 2.2
2015-Mar-21 18:19N 48°47' W 123°22'810.1
2015-Mar-21 17:31N 48°39' W 123°27'6 5.5
2015-Mar-21 16:31N 48°44' W 123°24'8 0.2
2015-Mar-20 02:31N 48°51' W 123°30'0 0.0
2015-Mar-20 01:23N 48°51' W 123°30'0 0.0
2015-Mar-19 13:33N 48°51' W 123°30'0 0.0
2015-Mar-19 12:33N 48°51' W 123°30'0 0.0
2015-Mar-19 11:33N 48°51' W 123°30'0 0.0
2015-Mar-19 10:33N 48°51' W 123°30'0 0.0
2015-Mar-19 09:33N 48°51' W 123°30'0 0.0
2015-Mar-19 08:33N 48°51' W 123°30'0 0.0
2015-Mar-19 07:33N 48°51' W 123°30'0 0.0
2015-Mar-19 06:33N 48°51' W 123°30'0 0.0
2015-Mar-19 05:33N 48°51' W 123°30'0 0.0
2015-Mar-19 04:33N 48°51' W 123°30'0 0.0
2015-Mar-19 03:32N 48°51' W 123°30'0 0.0
2015-Mar-19 02:33N 48°51' W 123°30'0 0.0
2015-Mar-19 01:33N 48°51' W 123°30'0 0.0
2015-Mar-19 00:33N 48°51' W 123°30'  

Dump ship's entire track history